• Join FlightAware (Why Join?)
  • Login
  • US Flag 
12:52AM EST


 

Airport Tracker/Info


-or-


 

Live Flight TrackerFlight Track Log ✈ FDX760 ✈ 07-Apr-2013 ✈ KMEM - KEWR

Flight Track Log - Related Links

Times and Time Zones

All times are in EDT time to prevent confusion due to time zone crossing. See the FDX760 flight status page for this flight to view local times or setup timezone preferences in your user account.

Time Position Orientation Groundspeed Altitude Reporting Facility
EDT Latitude Longitude Course Direction KTS MPH feet Rate Location/Type
04:45PM 35.0167 -89.9667 180° South 188 216 1,500  Level KMEM
04:46PM 34.9833 -89.9667 180° South 216 249 2,700 2,940 Climbing KMEM
04:47PM 34.9500 -89.9000 121° Southeast 284 327 6,800 3,480 Climbing KMEM
04:47PM 34.9667 -89.8333 73° East 314 361 8,700 2,640 Climbing KMEM
04:49PM 35.0222 -89.7106 61° Northeast 357 411 11,600 2,580 Climbing Memphis Center
04:50PM 35.0736 -89.5731 65° Northeast 396 456 14,400 3,000 Climbing Memphis Center
04:51PM 35.1289 -89.4278 65° Northeast 443 510 17,600 3,120 Climbing Memphis Center
04:52PM 35.1861 -89.2772 65° Northeast 478 550 20,700 3,000 Climbing Memphis Center
04:53PM 35.2453 -89.1239 65° Northeast 491 565 23,600 2,520 Climbing Memphis Center
04:54PM 35.3061 -88.9603 65° Northeast 512 589 25,700 2,160 Climbing Memphis Center
04:55PM 35.3628 -88.8117 65° Northeast 518 596 28,000 2,340 Climbing Memphis Center
04:56PM 35.4231 -88.6500 65° Northeast 530 610 30,500 2,400 Climbing Memphis Center
04:57PM 35.4894 -88.4675 66° East 525 604 32,800 660 Climbing Memphis Center
05:02PM 35.8370 -87.5260 66° East 527 606 35,000 300 Climbing FlightAware
05:03PM 35.8790 -87.4180 64° Northeast 522 601 35,000  Level FlightAware
05:04PM 35.9290 -87.3160 59° Northeast 524 603 35,000  Level FlightAware
05:04PM 35.9850 -87.2040 58° Northeast 525 604 35,000  Level FlightAware
05:05PM 36.0360 -87.1020 58° Northeast 526 605 35,000  Level FlightAware
05:06PM 36.0930 -86.9900 58° Northeast 524 603 35,000  Level FlightAware
05:06PM 36.1333 -86.9082 59° Northeast 524 603 35,000  Level FlightAware ADS-B
05:07PM 36.1756 -86.8239 58° Northeast 524 603 35,000  Level FlightAware ADS-B
05:07PM 36.2090 -86.7580 58° Northeast 524 603 35,000  Level FlightAware
05:08PM 36.2630 -86.6490 58° Northeast 524 603 35,000  Level FlightAware
05:09PM 36.3100 -86.5420 61° Northeast 524 603 35,000  Level FlightAware
05:10PM 36.3490 -86.4120 70° East 522 601 35,000  Level FlightAware
05:10PM 36.3870 -86.2830 70° East 522 601 35,000  Level FlightAware
05:11PM 36.4230 -86.1650 69° East 522 601 35,000  Level FlightAware
05:11PM 36.4467 -86.0833 70° East 524 603 35,000  Level FlightAware ADS-B
05:12PM 36.4725 -85.9957 70° East 525 604 35,000  Level FlightAware ADS-B
05:13PM 36.5065 -85.8794 70° East 526 605 35,000  Level FlightAware ADS-B
05:14PM 36.5653 -85.6776 70° East 527 606 35,100  Climbing FlightAware ADS-B
05:14PM 36.5906 -85.5893 70° East 527 606 35,100  Level FlightAware ADS-B
05:15PM 36.6156 -85.5040 70° East 526 605 35,100 -120 Level FlightAware ADS-B
05:15PM 36.6446 -85.4046 70° East 525 604 35,000 -120 Descending FlightAware ADS-B
05:16PM 36.6716 -85.3106 70° East 525 604 35,000  Level FlightAware ADS-B
05:16PM 36.6970 -85.2224 70° East 525 604 35,000  Level FlightAware ADS-B
05:17PM 36.7213 -85.1369 70° East 524 603 35,000  Level FlightAware ADS-B
05:18PM 36.7492 -85.0373 71° East 524 603 35,000  Level FlightAware ADS-B
05:18PM 36.7879 -84.9006 70° East 523 602 35,000  Level FlightAware ADS-B
05:19PM 36.8143 -84.8068 71° East 523 602 35,000  Level FlightAware ADS-B
05:19PM 36.8383 -84.7215 71° East 523 602 35,000  Level FlightAware ADS-B
05:20PM 36.8631 -84.6332 71° East 523 602 35,000  Level FlightAware ADS-B
05:20PM 36.8880 -84.5448 71° East 523 602 35,000  Level FlightAware ADS-B
05:21PM 36.9123 -84.4563 71° East 523 602 35,000  Level FlightAware ADS-B
05:22PM 36.9386 -84.3624 71° East 522 601 35,000  Level FlightAware ADS-B
05:22PM 36.9629 -84.2737 71° East 522 601 35,000  Level FlightAware ADS-B
05:23PM 36.9866 -84.1883 71° East 522 601 35,000  Level FlightAware ADS-B
05:23PM 37.0125 -84.0940 71° East 523 602 35,000  Level FlightAware ADS-B
05:24PM 37.0368 -84.0052 71° East 524 603 35,000  Level FlightAware ADS-B
05:24PM 37.0607 -83.9164 71° East 524 603 35,000  Level FlightAware ADS-B
05:25PM 37.0840 -83.8304 71° East 524 603 35,000  Level FlightAware ADS-B
05:25PM 37.1080 -83.7414 71° East 523 602 35,000  Level FlightAware ADS-B
05:26PM 37.1608 -83.5457 71° East 525 604 35,000  Level FlightAware ADS-B
05:27PM 37.1870 -83.4478 71° East 525 604 35,100 60 Climbing FlightAware ADS-B
05:27PM 37.2106 -83.3585 72° East 524 603 35,100 -120 Level FlightAware ADS-B
05:28PM 37.2486 -83.2174 71° East 525 604 35,000 -120 Descending FlightAware ADS-B
05:29PM 37.2722 -83.1276 72° East 525 604 35,000  Level FlightAware ADS-B
05:29PM 37.2948 -83.0409 72° East 524 603 35,000  Level FlightAware ADS-B
05:30PM 37.3199 -82.9459 72° East 523 602 35,000  Level FlightAware ADS-B
05:30PM 37.3497 -82.8333 72° East 524 603 35,000  Level FlightAware ADS-B
05:35PM 37.5341 -82.1137 72° East 528 608 35,100  Climbing FlightAware ADS-B
05:35PM 37.5573 -82.0228 72° East 529 609 35,100  Level FlightAware ADS-B
05:36PM 37.5802 -81.9319 72° East 528 608 35,100  Level FlightAware ADS-B
05:36PM 37.6021 -81.8442 72° East 527 606 35,100 -120 Level FlightAware ADS-B
05:37PM 37.6366 -81.7067 72° East 526 605 35,000 -60 Descending FlightAware ADS-B
05:38PM 37.6745 -81.5548 72° East 526 605 35,000  Level FlightAware ADS-B
05:38PM 37.7063 -81.4259 73° East 526 605 35,000  Level FlightAware ADS-B
05:39PM 37.7292 -81.3323 73° East 527 606 35,000  Level FlightAware ADS-B
05:40PM 37.7742 -81.1472 73° East 527 606 35,000  Level FlightAware ADS-B
05:40PM 37.7831 -81.0731 73° East 518 596 35,000  Level Washington Center
05:41PM 37.7956 -80.8900 85° East 518 596 35,000  Level Washington Center
05:42PM 37.8075 -80.7069 85° East 518 596 35,100  Climbing Washington Center
05:43PM 37.8189 -80.5394 85° East 518 596 35,000 -60 Descending Washington Center
05:44PM 37.8306 -80.3561 85° East 518 596 35,000  Level Washington Center
05:45PM 37.8419 -80.1700 86° East 518 596 35,000  Level Washington Center
05:46PM 37.8550 -79.9894 85° East 518 596 35,000  Level Washington Center
05:47PM 37.8658 -79.8033 86° East 518 596 35,000  Level Washington Center
05:48PM 37.8792 -79.5961 85° East 524 603 35,100  Climbing Washington Center
05:49PM 37.8894 -79.4097 86° East 529 609 35,000 -60 Descending Washington Center
05:55PM 37.9760 -78.4790 86° East 528 608 35,000  Level FlightAware
05:55PM 37.9900 -78.3590 82° East 529 609 35,000  Level FlightAware
05:56PM 38.0240 -78.1510 78° East 525 604 35,000  Level FlightAware
05:57PM 38.0740 -78.0360 61° Northeast 521 600 35,000  Level FlightAware
05:58PM 38.1400 -77.9010 58° Northeast 522 601 35,000  Level FlightAware
05:58PM 38.1790 -77.8210 58° Northeast 521 600 35,000  Level FlightAware
05:59PM 38.2360 -77.7070 57° Northeast 519 597 35,000  Level FlightAware
06:00PM 38.2910 -77.5980 57° Northeast 520 598 35,000  Level FlightAware
06:01PM 38.3460 -77.4840 58° Northeast 523 602 35,000 -360 Level FlightAware
06:01PM 38.4180 -77.3690 51° Northeast 515 593 34,500 -780 Descending FlightAware
06:02PM 38.4790 -77.2860 47° Northeast 518 596 34,000 -420 Descending FlightAware
06:03PM 38.5490 -77.1900 47° Northeast 518 596 34,000  Level FlightAware
06:04PM 38.6270 -77.0820 47° Northeast 519 597 34,000  Level FlightAware
06:04PM 38.6890 -76.9970 47° Northeast 519 597 34,000  Level FlightAware
06:05PM 38.7387 -76.9294 47° Northeast 520 598 34,000  Level FlightAware ADS-B
06:05PM 38.7984 -76.8479 47° Northeast 522 601 34,000  Level FlightAware ADS-B
06:06PM 38.8484 -76.7775 48° Northeast 521 600 34,000  Level FlightAware ADS-B
06:06PM 38.8992 -76.7076 47° Northeast 519 597 34,000  Level FlightAware ADS-B
06:07PM 38.9488 -76.6393 47° Northeast 522 601 34,000  Level FlightAware ADS-B
06:07PM 39.0040 -76.5616 48° Northeast 524 603 34,000  Level FlightAware ADS-B
06:08PM 39.0545 -76.4906 48° Northeast 524 603 34,000 -300 Level FlightAware ADS-B
06:08PM 39.1102 -76.4124 47° Northeast 524 603 33,700 -1,020 Descending FlightAware ADS-B
06:09PM 39.1647 -76.3368 47° Northeast 527 606 32,900 -1,920 Descending FlightAware ADS-B
06:09PM 39.2145 -76.2672 47° Northeast 530 610 31,700 -2,280 Descending FlightAware ADS-B
06:10PM 39.2740 -76.1829 48° Northeast 513 590 30,400 -2,160 Descending FlightAware ADS-B
06:11PM 39.3220 -76.1158 47° Northeast 503 579 29,300 -2,160 Descending FlightAware ADS-B
06:11PM 39.3707 -76.0476 47° Northeast 492 566 28,200 -2,160 Descending FlightAware ADS-B
06:12PM 39.4180 -75.9785 48° Northeast 483 556 27,100 -2,160 Descending FlightAware ADS-B
06:12PM 39.4667 -75.9087 48° Northeast 473 544 25,900 -2,160 Descending FlightAware ADS-B
06:13PM 39.5126 -75.8445 47° Northeast 464 534 24,800 -1,920 Descending FlightAware ADS-B
06:13PM 39.5578 -75.7815 47° Northeast 435 501 23,900 -1,920 Descending FlightAware ADS-B
06:14PM 39.5992 -75.7213 48° Northeast 420 483 22,800 -2,220 Descending FlightAware ADS-B
06:14PM 39.6452 -75.6557 48° Northeast 401 461 21,400 -2,220 Descending FlightAware ADS-B
06:15PM 39.6825 -75.6019 48° Northeast 400 460 20,400 -1,920 Descending FlightAware ADS-B
06:15PM 39.7234 -75.5513 44° Northeast 391 450 19,500 -1,800 Descending FlightAware ADS-B
06:16PM 39.7632 -75.5035 43° Northeast 388 447 18,600 -1,800 Descending FlightAware ADS-B
06:16PM 39.8050 -75.4531 43° Northeast 384 442 17,700 -1,860 Descending FlightAware ADS-B
06:17PM 39.8446 -75.4059 42° Northeast 381 438 16,700 -1,920 Descending FlightAware ADS-B
06:17PM 39.8842 -75.3580 43° Northeast 375 432 15,800 -1,680 Descending FlightAware ADS-B
06:18PM 39.9312 -75.3018 43° Northeast 369 425 14,800 -1,620 Descending FlightAware ADS-B
06:19PM 39.9691 -75.2553 43° Northeast 364 419 14,000 -1,740 Descending FlightAware ADS-B
06:19PM 40.0059 -75.2105 43° Northeast 359 413 13,100 -1,680 Descending FlightAware ADS-B
06:20PM 40.0423 -75.1663 43° Northeast 352 405 12,300 -1,620 Descending FlightAware ADS-B
06:20PM 40.0783 -75.1216 44° Northeast 348 400 11,500 -1,320 Descending FlightAware ADS-B
06:21PM 40.1134 -75.0792 43° Northeast 333 383 11,000 -900 Descending FlightAware ADS-B
06:21PM 40.1461 -75.0392 43° Northeast 316 364 10,600 -1,020 Descending FlightAware ADS-B
06:22PM 40.1793 -75.0003 42° Northeast 307 353 10,000 -1,200 Descending FlightAware ADS-B
06:22PM 40.1899 -74.9877 42° Northeast 307 353 9,800 -1,200 Descending FlightAware ADS-B
06:22PM 40.2000 -74.9749 44° Northeast 305 351 9,600 -1,200 Descending FlightAware ADS-B
06:22PM 40.2165 -74.9542 44° Northeast 303 349 9,300 -1,140 Descending FlightAware ADS-B
06:22PM 40.2326 -74.9339 44° Northeast 301 346 9,000 -1,200 Descending FlightAware ADS-B
06:23PM 40.2485 -74.9140 44° Northeast 301 346 8,700 -1,320 Descending FlightAware ADS-B
06:23PM 40.2564 -74.9039 44° Northeast 301 346 8,500 -1,080 Descending FlightAware ADS-B
06:23PM 40.2654 -74.8921 45° Northeast 301 346 8,400 -1,020 Descending FlightAware ADS-B
06:23PM 40.2794 -74.8717 48° Northeast 302 348 8,100 -1,380 Descending FlightAware ADS-B
06:24PM 40.2945 -74.8497 48° Northeast 306 352 7,700 -1,320 Descending FlightAware ADS-B
06:24PM 40.3100 -74.8279 47° Northeast 308 354 7,400 -1,140 Descending FlightAware ADS-B
06:24PM 40.3257 -74.8062 46° Northeast 308 354 7,100 -960 Descending FlightAware ADS-B
06:24PM 40.3415 -74.7844 46° Northeast 307 353 6,900 -420 Descending FlightAware ADS-B
06:25PM 40.3561 -74.7643 46° Northeast 305 351 6,900  Level FlightAware ADS-B
06:25PM 40.3704 -74.7437 48° Northeast 305 351 6,900  Level FlightAware ADS-B
06:25PM 40.3849 -74.7233 47° Northeast 305 351 6,900  Level FlightAware ADS-B
06:25PM 40.3998 -74.7015 48° Northeast 305 351 6,900  Level FlightAware ADS-B
06:26PM 40.4148 -74.6818 45° Northeast 303 349 6,900  Level FlightAware ADS-B
06:26PM 40.4214 -74.6754 36° Northeast 301 346 6,900  Level FlightAware ADS-B
06:26PM 40.4280 -74.6708 28° Northeast 297 342 6,900  Level FlightAware ADS-B
06:26PM 40.4319 -74.6686 23° Northeast 296 341 6,900  Level FlightAware ADS-B
06:26PM 40.4367 -74.6662 21° North 293 337 6,900  Level FlightAware ADS-B
06:26PM 40.4420 -74.6644 14° North 290 334 6,900  Level FlightAware ADS-B
06:26PM 40.4634 -74.6602 North 288 331 6,900  Level FlightAware ADS-B
06:26PM 40.4792 -74.6565 10° North 291 335 6,900  Level FlightAware ADS-B
06:27PM 40.4903 -74.6531 13° North 292 336 6,900  Level FlightAware ADS-B
06:27PM 40.5122 -74.6464 13° North 291 335 6,900  Level FlightAware ADS-B
06:27PM 40.5327 -74.6400 13° North 288 331 6,900  Level FlightAware ADS-B
06:27PM 40.5547 -74.6337 12° North 287 330 6,900 -600 Level FlightAware ADS-B
06:28PM 40.5742 -74.6285 11° North 285 328 6,600 -1,200 Descending FlightAware ADS-B
06:28PM 40.5949 -74.6233 11° North 283 326 6,300 -900 Descending FlightAware ADS-B
06:28PM 40.6360 -74.6128 11° North 276 318 5,900 -480 Descending FlightAware ADS-B
06:29PM 40.6576 -74.6072 11° North 278 320 5,900  Level FlightAware ADS-B
06:29PM 40.6793 -74.6015 11° North 279 321 5,900  Level FlightAware ADS-B
06:29PM 40.6923 -74.5951 20° North 283 326 5,900 180 Level FlightAware ADS-B
06:30PM 40.7161 -74.5746 33° Northeast 294 338 6,000 -180 Climbing FlightAware ADS-B
06:30PM 40.7328 -74.5608 32° Northeast 295 339 5,800 -1,080 Descending FlightAware ADS-B
06:30PM 40.7486 -74.5469 34° Northeast 293 337 5,500 -1,380 Descending FlightAware ADS-B
06:30PM 40.7529 -74.5430 34° Northeast 293 337 5,400 -1,620 Descending FlightAware ADS-B
06:30PM 40.7662 -74.5311 34° Northeast 293 337 5,100 -1,500 Descending FlightAware ADS-B
06:30PM 40.7720 -74.5262 33° Northeast 292 336 5,000 -240 Descending FlightAware ADS-B
06:31PM 40.7938 -74.5079 32° Northeast 291 335 5,000  Level FlightAware ADS-B
06:31PM 40.8025 -74.5002 34° Northeast 293 337 5,000 -300 Level FlightAware ADS-B
06:31PM 40.8189 -74.4839 37° Northeast 293 337 4,900 -300 Descending FlightAware ADS-B
06:31PM 40.8267 -74.4742 43° Northeast 295 339 4,900  Level FlightAware ADS-B
06:31PM 40.8395 -74.4597 41° Northeast 295 339 4,900 120 Level FlightAware ADS-B
06:32PM 40.8724 -74.4217 41° Northeast 295 339 5,000 120 Climbing FlightAware ADS-B
06:32PM 40.8882 -74.4026 42° Northeast 295 339 5,000 -180 Level FlightAware ADS-B
06:33PM 40.9160 -74.3568 51° Northeast 291 335 4,900  Descending FlightAware ADS-B
06:33PM 40.9178 -74.3479 75° East 297 342 5,000  Climbing FlightAware ADS-B
06:33PM 40.9277 -74.2951 76° East 295 339 4,900 -180 Descending FlightAware ADS-B
06:34PM 40.9329 -74.2693 75° East 290 334 4,900  Level FlightAware ADS-B
06:34PM 40.9352 -74.2573 76° East 289 333 4,900  Level FlightAware ADS-B
06:34PM 40.9362 -74.2504 79° East 290 334 4,900  Level FlightAware ADS-B
06:34PM 40.9369 -74.2415 84° East 289 333 4,900  Level FlightAware ADS-B
06:34PM 40.9367 -74.2347 92° East 284 327 4,900  Level FlightAware ADS-B
06:34PM 40.9358 -74.2279 100° East 280 322 4,900 -300 Level FlightAware ADS-B
06:34PM 40.9310 -74.1997 103° East 278 320 4,800 -540 Descending FlightAware ADS-B
06:34PM 40.9293 -74.1881 101° East 278 320 4,700 -1,320 Descending FlightAware ADS-B
06:35PM 40.9240 -74.1535 101° East 272 313 4,200 -1,140 Descending FlightAware ADS-B
06:35PM 40.9200 -74.1282 102° East 257 296 4,000 -840 Descending FlightAware ADS-B
06:35PM 40.9141 -74.0965 104° East 229 264 3,700 -720 Descending FlightAware ADS-B
06:35PM 40.9127 -74.0927 116° Southeast 226 260 3,700 -1,020 Level FlightAware ADS-B
06:35PM 40.9109 -74.0895 127° Southeast 221 254 3,600 -1,020 Descending FlightAware ADS-B
06:36PM 40.9050 -74.0825 138° Southeast 204 235 3,500 -360 Descending FlightAware ADS-B
06:36PM 40.8975 -74.0782 157° South 186 214 3,500 -480 Level FlightAware ADS-B
06:36PM 40.8845 -74.0728 163° South 185 213 3,300 -840 Descending FlightAware ADS-B
06:36PM 40.8665 -74.0663 165° South 185 213 3,000 -660 Descending FlightAware ADS-B
06:37PM 40.8529 -74.0649 176° South 179 206 2,900 -300 Descending FlightAware ADS-B
06:37PM 40.8476 -74.0668 195° South 174 200 2,900  Level FlightAware ADS-B
06:37PM 40.8407 -74.0709 204° Southwest 174 200 2,900  Level FlightAware ADS-B
06:37PM 40.8282 -74.0783 204° Southwest 174 200 2,900 -600 Level FlightAware ADS-B
06:37PM 40.8173 -74.0851 205° Southwest 174 200 2,600 -1,080 Descending FlightAware ADS-B
06:38PM 40.7954 -74.0991 206° Southwest 162 186 2,100 -900 Descending FlightAware ADS-B
06:38PM 40.7846 -74.1060 206° Southwest 160 184 1,900 -780 Descending FlightAware ADS-B
06:38PM 40.7746 -74.1123 206° Southwest 157 181 1,700 -960 Descending FlightAware ADS-B
06:39PM 40.7591 -74.1223 206° Southwest 153 176 1,300 -1,020 Descending FlightAware ADS-B
06:39PM 40.7511 -74.1273 205° Southwest 138 159 1,100 -660 Descending FlightAware ADS-B
06:39PM 40.7422 -74.1332 207° Southwest 136 157 1,000 -720 Descending FlightAware ADS-B
06:40PM 40.7310 -74.1401 205° Southwest 139 160 700 -840 Descending FlightAware ADS-B
06:40PM 40.7055 -74.1565 206° Southwest 140 161 200 -780 Descending FlightAware ADS-B
06:47PM 40.6833 -74.1667 195° South  Level FlightAware Approximate
06:48PM 40.6925 -74.1687 195° South  Level Estimated
06:49PM 40.6925 -74.1687 195° South  Level Estimated
06:50PM 40.6925 -74.1687 195° South  Level Estimated